• Join FlightAware (Why Join?)
  • Login
  • US Flag 
03:25AM EDT


 

Airport Tracker/Info


-or-


 

Live Flight TrackerFlight Track Log ✈ CCA1478 ✈ 22-Oct-2013 ✈ ZWWW / URC - ZBAA / PEK

Flight Track Log - Related Links

Times and Time Zones

All times are in EDT time to prevent confusion due to time zone crossing. See the CCA1478 flight status page for this flight to view local times or setup timezone preferences in your user account.

Time Position Orientation Groundspeed Altitude Reporting Facility
EDT Latitude Longitude Course Direction KTS MPH feet Rate Location/Type
10:15AM 43.9063 87.9636 90° East  Level Estimated
10:16AM 43.9056 88.1267 90° East  Level Estimated
10:17AM 43.9047 88.2899 90° East  Level Estimated
10:18AM 43.9035 88.4530 91° East  Level Estimated
10:19AM 43.9020 88.6161 91° East  Level Estimated
10:20AM 43.9004 88.7792 91° East  Level Estimated
10:21AM 43.8985 88.9422 91° East  Level Estimated
10:22AM 43.8964 89.1053 91° East  Level Estimated
10:23AM 43.8940 89.2684 91° East  Level Estimated
10:24AM 43.8915 89.4314 91° East  Level Estimated
10:25AM 43.8886 89.5945 91° East  Level Estimated
10:26AM 43.8856 89.7575 91° East  Level Estimated
10:27AM 43.8823 89.9205 92° East  Level Estimated
10:28AM 43.8788 90.0835 92° East  Level Estimated
10:29AM 43.8751 90.2464 92° East  Level Estimated
10:30AM 43.8711 90.4093 92° East  Level Estimated
10:31AM 43.8669 90.5723 92° East  Level Estimated
10:32AM 43.8625 90.7352 92° East  Level Estimated
10:33AM 43.8578 90.8980 92° East  Level Estimated
10:34AM 43.8529 91.0609 92° East  Level Estimated
10:35AM 43.8478 91.2237 92° East  Level Estimated
10:36AM 43.8424 91.3865 93° East  Level Estimated
10:37AM 43.8369 91.5492 93° East  Level Estimated
10:38AM 43.8310 91.7120 93° East  Level Estimated
10:39AM 43.8250 91.8747 93° East  Level Estimated
10:40AM 43.8187 92.0373 93° East  Level Estimated
10:41AM 43.8122 92.2000 93° East  Level Estimated
10:42AM 43.8055 92.3625 93° East  Level Estimated
10:43AM 43.7985 92.5251 93° East  Level Estimated
10:44AM 43.7913 92.6876 93° East  Level Estimated
10:45AM 43.7839 92.8501 94° East  Level Estimated
10:46AM 43.7762 93.0125 94° East  Level Estimated
10:47AM 43.7683 93.1749 94° East  Level Estimated
10:48AM 43.7602 93.3372 94° East  Level Estimated
10:49AM 43.7518 93.4995 94° East  Level Estimated
10:50AM 43.7433 93.6618 94° East  Level Estimated
10:51AM 43.7345 93.8240 94° East  Level Estimated
10:52AM 43.7254 93.9862 94° East  Level Estimated
10:53AM 43.7161 94.1483 94° East  Level Estimated
10:54AM 43.7066 94.3103 95° East  Level Estimated
10:55AM 43.6969 94.4724 95° East  Level Estimated
10:56AM 43.6870 94.6343 95° East  Level Estimated
10:57AM 43.6768 94.7962 95° East  Level Estimated
10:58AM 43.6664 94.9581 95° East  Level Estimated
10:59AM 43.6557 95.1199 95° East  Level Estimated
11:00AM 43.6449 95.2816 95° East  Level Estimated
11:01AM 43.6338 95.4433 95° East  Level Estimated
11:02AM 43.6224 95.6049 95° East  Level Estimated
11:03AM 43.6109 95.7664 96° East  Level Estimated
11:04AM 43.5991 95.9279 96° East  Level Estimated
11:05AM 43.5871 96.0893 96° East  Level Estimated
11:06AM 43.5748 96.2507 96° East  Level Estimated
11:07AM 43.5624 96.4120 96° East  Level Estimated
11:08AM 43.5497 96.5732 96° East  Level Estimated
11:09AM 43.5368 96.7344 96° East  Level Estimated
11:10AM 43.5237 96.8954 96° East  Level Estimated
11:11AM 43.5103 97.0565 96° East  Level Estimated
11:12AM 43.4967 97.2174 97° East  Level Estimated
11:13AM 43.4829 97.3783 97° East  Level Estimated
11:14AM 43.4688 97.5391 97° East  Level Estimated
11:15AM 43.4546 97.6998 97° East  Level Estimated
11:16AM 43.4401 97.8605 97° East  Level Estimated
11:17AM 43.4254 98.0210 97° East  Level Estimated
11:18AM 43.4104 98.1815 97° East  Level Estimated
11:19AM 43.3952 98.3419 97° East  Level Estimated
11:20AM 43.3798 98.5023 97° East  Level Estimated
11:21AM 43.3642 98.6625 98° East  Level Estimated
11:22AM 43.3484 98.8227 98° East  Level Estimated
11:23AM 43.3323 98.9827 98° East  Level Estimated
11:24AM 43.3160 99.1427 98° East  Level Estimated
11:25AM 43.2995 99.3026 98° East  Level Estimated
11:26AM 43.2828 99.4625 98° East  Level Estimated
11:27AM 43.2659 99.6222 98° East  Level Estimated
11:28AM 43.2487 99.7818 98° East  Level Estimated
11:29AM 43.2313 99.9414 98° East  Level Estimated
11:30AM 43.2136 100.1008 99° East  Level Estimated
11:31AM 43.1958 100.2602 99° East  Level Estimated
11:32AM 43.1777 100.4195 99° East  Level Estimated
11:33AM 43.1595 100.5787 99° East  Level Estimated
11:34AM 43.1410 100.7377 99° East  Level Estimated
11:35AM 43.1222 100.8967 99° East  Level Estimated
11:36AM 43.1033 101.0556 99° East  Level Estimated
11:37AM 43.0841 101.2144 99° East  Level Estimated
11:38AM 43.0648 101.3731 99° East  Level Estimated
11:39AM 43.0452 101.5317 100° East  Level Estimated
11:40AM 43.0253 101.6902 100° East  Level Estimated
11:41AM 43.0053 101.8486 100° East  Level Estimated
11:42AM 42.9851 102.0068 100° East  Level Estimated
11:43AM 42.9646 102.1650 100° East  Level Estimated
11:44AM 42.9439 102.3231 100° East  Level Estimated
11:45AM 42.9230 102.4810 100° East  Level Estimated
11:46AM 42.9019 102.6389 100° East  Level Estimated
11:47AM 42.8805 102.7967 100° East  Level Estimated
11:48AM 42.8590 102.9543 101° East  Level Estimated
11:49AM 42.8372 103.1118 101° East  Level Estimated
11:50AM 42.8152 103.2692 101° East  Level Estimated
11:51AM 42.7930 103.4265 101° East  Level Estimated
11:52AM 42.7705 103.5837 101° East  Level Estimated
11:53AM 42.7479 103.7408 101° East  Level Estimated
11:54AM 42.7251 103.8978 101° East  Level Estimated
11:55AM 42.7020 104.0546 101° East  Level Estimated
11:56AM 42.6787 104.2113 101° East  Level Estimated
11:57AM 42.6552 104.3679 101° East  Level Estimated
11:58AM 42.6315 104.5244 102° East  Level Estimated
11:59AM 42.6076 104.6808 102° East  Level Estimated
12:00PM 42.5835 104.8371 102° East  Level Estimated
12:01PM 42.5591 104.9932 102° East  Level Estimated
12:02PM 42.5346 105.1492 102° East  Level Estimated
12:03PM 42.5098 105.3051 102° East  Level Estimated
12:04PM 42.4848 105.4608 102° East  Level Estimated
12:05PM 42.4596 105.6165 102° East  Level Estimated
12:06PM 42.4342 105.7720 102° East  Level Estimated
12:07PM 42.4086 105.9274 103° East  Level Estimated
12:08PM 42.3828 106.0826 103° East  Level Estimated
12:09PM 42.3568 106.2377 103° East  Level Estimated
12:10PM 42.3305 106.3927 103° East  Level Estimated
12:11PM 42.3041 106.5476 103° East  Level Estimated
12:12PM 42.2774 106.7023 103° East  Level Estimated
12:13PM 42.2506 106.8569 103° East  Level Estimated
12:14PM 42.2235 107.0114 103° East  Level Estimated
12:15PM 42.1962 107.1658 103° East  Level Estimated
12:16PM 42.1687 107.3200 103° East  Level Estimated
12:17PM 42.1410 107.4740 104° East  Level Estimated
12:18PM 42.1131 107.6280 104° East  Level Estimated
12:19PM 42.0850 107.7818 104° East  Level Estimated
12:20PM 42.0567 107.9354 104° East  Level Estimated
12:21PM 42.0282 108.0890 104° East  Level Estimated
12:22PM 41.9995 108.2424 104° East  Level Estimated
12:23PM 41.9706 108.3956 104° East  Level Estimated
12:24PM 41.9415 108.5487 104° East  Level Estimated
12:25PM 41.9121 108.7017 104° East  Level Estimated
12:26PM 41.8826 108.8545 105° East  Level Estimated
12:27PM 41.8529 109.0072 105° East  Level Estimated
12:28PM 41.8229 109.1598 105° East  Level Estimated
12:29PM 41.7928 109.3121 105° East  Level Estimated
12:30PM 41.7625 109.4644 105° East  Level Estimated
12:31PM 41.7319 109.6165 105° East  Level Estimated
12:32PM 41.7012 109.7685 105° East  Level Estimated
12:33PM 41.6703 109.9203 105° East  Level Estimated
12:34PM 41.6391 110.0720 105° East  Level Estimated
12:35PM 41.6078 110.2235 105° East  Level Estimated
12:36PM 41.5762 110.3749 106° East  Level Estimated
12:37PM 41.5445 110.5261 106° East  Level Estimated
12:38PM 41.5126 110.6772 106° East  Level Estimated
12:39PM 41.4805 110.8282 106° East  Level Estimated
12:40PM 41.4481 110.9790 106° East  Level Estimated
12:41PM 41.4156 111.1296 106° East  Level Estimated
12:42PM 41.3829 111.2801 106° East  Level Estimated
12:43PM 41.3500 111.4304 106° East  Level Estimated
12:44PM 41.3169 111.5806 106° East  Level Estimated
12:45PM 41.2836 111.7306 106° East  Level Estimated
12:46PM 41.2501 111.8805 107° East  Level Estimated
12:47PM 41.2164 112.0302 107° East  Level Estimated
12:48PM 41.1825 112.1797 107° East  Level Estimated
12:49PM 41.1484 112.3292 107° East  Level Estimated
12:50PM 41.1141 112.4784 107° East  Level Estimated
12:51PM 41.0797 112.6275 107° East  Level Estimated
12:52PM 41.0450 112.7765 107° East  Level Estimated
12:53PM 41.0102 112.9252 107° East  Level Estimated
12:54PM 40.9751 113.0739 107° East  Level Estimated
12:55PM 40.9399 113.2223 107° East  Level Estimated
12:56PM 40.9045 113.3706 107° East  Level Estimated
12:57PM 40.8689 113.5188 108° East  Level Estimated
12:58PM 40.8331 113.6668 108° East  Level Estimated
12:59PM 40.7971 113.8146 108° East  Level Estimated
01:00PM 40.7609 113.9623 108° East  Level Estimated
01:01PM 40.7245 114.1098 108° East  Level Estimated
01:02PM 40.6880 114.2571 108° East  Level Estimated
01:03PM 40.6512 114.4043 108° East  Level Estimated
01:04PM 40.6143 114.5513 108° East  Level Estimated
01:05PM 40.5772 114.6982 108° East  Level Estimated
01:06PM 40.5399 114.8449 108° East  Level Estimated
01:07PM 40.5024 114.9914 109° East  Level Estimated
01:08PM 40.4647 115.1378 109° East  Level Estimated
01:09PM 40.4269 115.2840 109° East  Level Estimated
01:10PM 40.3889 115.4300 109° East  Level Estimated
01:11PM 40.3506 115.5759 109° East  Level Estimated
01:12PM 40.3122 115.7216 109° East  Level Estimated
01:13PM 40.2736 115.8672 109° East  Level Estimated
01:14PM 40.2349 116.0125 109° East  Level Estimated
01:15PM 40.1959 116.1578 109° East  Level Estimated
01:16PM 40.1568 116.3028 109° East  Level Estimated
01:17PM 40.1175 116.4477 109° East  Level Estimated
01:18PM 40.0801 116.5846 110° East  Level Estimated
01:19PM 40.0801 116.5846 288° West  Level Estimated
01:20PM 40.0801 116.5846 288° West  Level Estimated
01:21PM 40.0801 116.5846 288° West  Level Estimated
01:22PM 40.0801 116.5846 288° West  Level Estimated
01:23PM 40.0801 116.5846 288° West  Level Estimated
01:24PM 40.0801 116.5846 288° West  Level Estimated